createdAt,value
2023-01-03T00:04:59.801Z,1.60
2023-01-03T00:10:07.446Z,1.52
2023-01-03T00:15:14.119Z,1.95
2023-01-03T00:20:17.795Z,2.03
2023-01-03T00:25:22.752Z,2.17
2023-01-03T00:30:26.425Z,2.42
2023-01-03T00:35:29.973Z,2.38
2023-01-03T00:40:34.821Z,1.73
2023-01-03T00:45:38.335Z,1.92
2023-01-03T00:50:41.923Z,1.90
2023-01-03T00:55:46.798Z,1.90
2023-01-03T01:05:53.545Z,1.65
2023-01-03T01:11:04.595Z,1.70
2023-01-03T01:16:10.325Z,1.50
2023-01-03T01:21:18.098Z,1.45
2023-01-03T01:26:24.924Z,1.52
2023-01-03T01:31:28.913Z,1.83
2023-01-03T01:36:37.590Z,1.77
2023-01-03T01:42:02.129Z,1.77
2023-01-03T01:47:05.836Z,1.70
2023-01-03T01:52:11.315Z,1.58
2023-01-03T01:57:19.968Z,1.98
2023-01-03T02:02:24.988Z,3.25
2023-01-03T02:07:28.715Z,2.70
2023-01-03T02:12:58.108Z,2.33
2023-01-03T02:18:27.479Z,2.88
2023-01-03T02:24:09.032Z,2.45
2023-01-03T02:29:49.105Z,2.35
2023-01-03T02:35:04.927Z,2.30
2023-01-03T02:40:15.519Z,2.28
2023-01-03T02:45:22.403Z,1.90
2023-01-03T02:50:31.162Z,2.20
2023-01-03T02:55:36.282Z,5.40
2023-01-03T03:00:45.469Z,7.18
2023-01-03T03:05:55.781Z,5.18
2023-01-03T03:11:16.893Z,2.65
2023-01-03T03:16:45.086Z,2.08
2023-01-03T03:22:07.725Z,1.80
2023-01-03T03:27:28.249Z,1.85
2023-01-03T03:32:34.963Z,2.30
2023-01-03T03:37:41.995Z,2.22
2023-01-03T03:43:06.130Z,3.30
2023-01-03T03:48:15.362Z,2.10
2023-01-03T03:53:23.710Z,2.10
2023-01-03T03:58:32.419Z,2.10
2023-01-03T04:03:37.999Z,2.00
2023-01-03T04:08:43.088Z,2.03
2023-01-03T04:13:46.548Z,2.60
2023-01-03T04:18:50.151Z,1.88
2023-01-03T04:23:55.030Z,2.20
2023-01-03T04:34:01.718Z,1.85
2023-01-03T04:39:06.668Z,2.17
2023-01-03T04:44:10.878Z,2.13
2023-01-03T04:49:14.640Z,2.05
2023-01-03T04:54:19.635Z,2.25
2023-01-03T04:59:23.178Z,2.35
2023-01-03T05:04:26.773Z,2.30
2023-01-03T05:09:31.879Z,2.70
2023-01-03T05:14:37.402Z,3.13
2023-01-03T05:20:01.048Z,3.78
2023-01-03T05:25:23.861Z,3.88
2023-01-03T05:30:27.544Z,4.13
2023-01-03T05:35:30.949Z,4.10
2023-01-03T05:40:41.055Z,3.40
2023-01-03T05:45:44.914Z,3.90
2023-01-03T05:50:50.167Z,4.03
2023-01-03T05:55:55.177Z,4.07
2023-01-03T06:00:58.790Z,4.60
2023-01-03T06:06:04.365Z,4.68
2023-01-03T06:11:10.232Z,5.85
2023-01-03T06:16:32.530Z,5.43
2023-01-03T06:21:36.904Z,5.65
2023-01-03T06:26:41.921Z,5.35
2023-01-03T06:31:45.495Z,5.05
2023-01-03T06:36:48.804Z,5.85
2023-01-03T06:41:53.783Z,6.13
2023-01-03T06:47:15.024Z,9.93
2023-01-03T06:52:36.067Z,9.95
2023-01-03T06:57:41.045Z,11.30
2023-01-03T07:02:44.471Z,7.22
2023-01-03T07:07:48.180Z,7.35
2023-01-03T07:13:10.413Z,6.85
2023-01-03T07:18:14.811Z,7.32
2023-01-03T07:23:18.143Z,6.75
2023-01-03T07:28:23.188Z,7.82
2023-01-03T07:33:26.645Z,7.13
2023-01-03T07:38:30.483Z,7.10
2023-01-03T07:43:38.171Z,6.50
2023-01-03T07:48:42.748Z,7.55
2023-01-03T07:53:46.671Z,7.05
2023-01-03T07:58:52.318Z,7.17
2023-01-03T08:03:55.898Z,7.55
2023-01-03T08:09:17.157Z,7.43
2023-01-03T08:14:26.149Z,8.88
2023-01-03T08:19:30.704Z,7.43
2023-01-03T08:24:34.161Z,7.95
2023-01-03T08:29:39.160Z,8.30
2023-01-03T08:34:44.595Z,9.10
2023-01-03T08:39:53.871Z,8.48
2023-01-03T08:45:03.799Z,8.90
2023-01-03T08:50:08.698Z,9.65
2023-01-03T08:55:12.074Z,9.27
2023-01-03T09:00:18.889Z,10.05
2023-01-03T09:05:22.447Z,10.88
2023-01-03T09:10:26.384Z,11.13
2023-01-03T09:15:31.377Z,10.63
2023-01-03T09:20:35.276Z,10.93
2023-01-03T09:25:38.731Z,10.20
2023-01-03T09:30:43.801Z,9.02
2023-01-03T09:35:47.534Z,9.88
2023-01-03T09:41:00.007Z,9.95
2023-01-03T09:46:06.143Z,9.45
2023-01-03T09:51:31.510Z,9.90
2023-01-03T09:56:52.639Z,9.65
2023-01-03T10:02:25.132Z,9.45
2023-01-03T10:07:44.463Z,10.38
2023-01-03T10:12:59.136Z,10.15
2023-01-03T10:18:17.572Z,9.73
2023-01-03T10:23:21.267Z,8.75
2023-01-03T10:28:27.966Z,9.13
2023-01-03T10:33:35.891Z,8.55
2023-01-03T10:38:46.455Z,9.45
2023-01-03T10:44:00.548Z,10.02
2023-01-03T10:49:29.563Z,10.13
2023-01-03T10:54:48.010Z,9.80
2023-01-03T10:59:51.763Z,10.20
2023-01-03T11:05:12.817Z,10.13
2023-01-03T11:10:19.049Z,11.48
2023-01-03T11:15:38.670Z,10.23
2023-01-03T11:20:50.113Z,11.38
2023-01-03T11:26:03.155Z,11.15
2023-01-03T11:31:12.993Z,9.95
2023-01-03T11:36:32.146Z,9.75
2023-01-03T11:41:55.216Z,9.07
2023-01-03T11:47:12.861Z,9.07
2023-01-03T11:52:30.525Z,9.55
2023-01-03T11:57:43.418Z,10.35
2023-01-03T12:03:08.360Z,8.70
2023-01-03T12:08:46.755Z,9.70
2023-01-03T12:13:57.399Z,9.68
2023-01-03T12:19:11.724Z,10.25
2023-01-03T12:24:23.591Z,9.13
2023-01-03T12:29:33.659Z,9.52
2023-01-03T12:34:44.921Z,9.80
2023-01-03T12:39:55.648Z,10.10
2023-01-03T12:45:11.392Z,11.50
2023-01-03T12:50:18.845Z,11.25
2023-01-03T12:55:32.257Z,10.85
2023-01-03T13:00:49.074Z,11.02
2023-01-03T13:05:56.699Z,10.70
2023-01-03T13:11:05.563Z,10.18
2023-01-03T13:16:32.132Z,9.10
2023-01-03T13:22:04.837Z,8.63
2023-01-03T13:27:37.527Z,8.10
2023-01-03T13:32:50.646Z,8.07
2023-01-03T13:37:55.052Z,7.78
2023-01-03T13:43:20.786Z,7.43
2023-01-03T13:48:38.637Z,7.45
2023-01-03T13:53:55.491Z,7.18
2023-01-03T13:59:12.611Z,6.20
2023-01-03T14:04:46.711Z,7.03
2023-01-03T14:10:17.269Z,5.80
2023-01-03T14:15:26.755Z,6.10
2023-01-03T14:20:35.715Z,5.53
2023-01-03T14:25:41.163Z,4.82
2023-01-03T14:30:47.233Z,4.53
2023-01-03T14:35:50.955Z,3.88
2023-01-03T14:40:56.082Z,4.13
2023-01-03T14:46:04.712Z,3.72
2023-01-03T14:51:11.858Z,3.80
2023-01-03T14:56:15.543Z,3.72
2023-01-03T15:01:21.123Z,3.55
2023-01-03T15:06:27.040Z,3.60
2023-01-03T15:11:34.102Z,3.50
2023-01-03T15:16:41.742Z,3.90
2023-01-03T15:21:45.665Z,4.57
2023-01-03T15:26:51.194Z,4.78
2023-01-03T15:32:00.710Z,4.78
2023-01-03T15:37:06.816Z,4.93
2023-01-03T15:42:50.168Z,6.03
2023-01-03T15:53:02.582Z,7.78
2023-01-03T15:58:06.165Z,7.38
2023-01-03T16:03:17.313Z,7.93
2023-01-03T16:08:30.380Z,7.40
2023-01-03T16:13:39.286Z,6.93
2023-01-03T16:18:46.177Z,6.25
2023-01-03T16:23:49.835Z,5.40
2023-01-03T16:28:53.470Z,5.85
2023-01-03T16:33:58.474Z,4.50
2023-01-03T16:39:02.377Z,5.20
2023-01-03T16:44:06.333Z,4.32
2023-01-03T16:49:12.878Z,4.40
2023-01-03T16:54:16.861Z,4.60
2023-01-03T16:59:22.302Z,3.83
2023-01-03T17:04:27.059Z,3.25
2023-01-03T17:09:36.098Z,2.60
2023-01-03T17:14:39.719Z,2.50
2023-01-03T17:20:03.546Z,1.90
2023-01-03T17:25:10.961Z,2.10
2023-01-03T17:30:20.428Z,1.95
2023-01-03T17:35:25.371Z,1.90
2023-01-03T17:45:55.015Z,1.70
2023-01-03T17:51:01.882Z,1.60
2023-01-03T17:56:05.672Z,1.48
2023-01-03T18:01:09.957Z,1.40
2023-01-03T18:06:19.258Z,1.50
2023-01-03T18:11:26.816Z,1.80
2023-01-03T18:16:30.777Z,1.30
2023-01-03T18:21:36.119Z,1.27
2023-01-03T18:26:42.672Z,1.50
2023-01-03T18:31:47.421Z,1.50
2023-01-03T18:36:54.128Z,1.20
2023-01-03T18:42:18.853Z,1.35
2023-01-03T18:47:22.479Z,1.33
2023-01-03T18:52:30.874Z,1.27
2023-01-03T18:57:34.775Z,1.30
2023-01-03T19:02:38.362Z,1.27
2023-01-03T19:07:45.207Z,1.25
2023-01-03T19:12:49.547Z,1.25
2023-01-03T19:17:53.671Z,1.20
2023-01-03T19:22:58.501Z,1.20
2023-01-03T19:33:08.176Z,1.08
2023-01-03T19:38:13.426Z,1.10
2023-01-03T19:43:22.512Z,0.90
2023-01-03T19:48:27.908Z,0.90
2023-01-03T19:53:33.317Z,0.77
2023-01-03T19:58:42.025Z,0.80
2023-01-03T20:03:45.598Z,0.70
2023-01-03T20:08:50.798Z,0.60
2023-01-03T20:13:54.514Z,0.50
2023-01-03T20:18:58.283Z,0.60
2023-01-03T20:24:05.907Z,0.70
2023-01-03T20:29:12.049Z,0.63
2023-01-03T20:34:15.491Z,0.70
2023-01-03T20:39:26.071Z,0.60
2023-01-03T20:44:30.216Z,0.80
2023-01-03T20:49:33.871Z,0.63
2023-01-03T20:54:38.761Z,0.65
2023-01-03T21:04:45.313Z,0.50
2023-01-03T21:09:50.444Z,0.50
2023-01-03T21:14:53.840Z,0.70
2023-01-03T21:19:57.445Z,0.60
2023-01-03T21:25:02.813Z,0.60
2023-01-03T21:30:09.000Z,0.60
2023-01-03T21:35:15.021Z,0.50
2023-01-03T21:40:22.232Z,0.55
2023-01-03T21:45:25.761Z,0.50
2023-01-03T21:50:29.851Z,0.40
2023-01-03T21:55:35.088Z,0.50
2023-01-03T22:00:38.685Z,0.57
2023-01-03T22:05:42.191Z,0.50
2023-01-03T22:10:49.868Z,0.50
2023-01-03T22:15:53.431Z,0.52
2023-01-03T22:20:57.072Z,0.50
2023-01-03T22:26:04.451Z,0.60
2023-01-03T22:31:12.543Z,0.55
2023-01-03T22:36:17.294Z,0.60
2023-01-03T22:41:22.660Z,0.70
2023-01-03T22:46:26.256Z,0.50
2023-01-03T22:51:29.827Z,0.60
2023-01-03T22:56:34.841Z,0.60
2023-01-03T23:01:38.477Z,0.55
2023-01-03T23:06:42.163Z,0.50
2023-01-03T23:12:04.528Z,0.50
2023-01-03T23:17:25.349Z,0.60
2023-01-03T23:22:28.771Z,0.50
2023-01-03T23:27:33.781Z,0.60
2023-01-03T23:32:37.187Z,0.50
2023-01-03T23:37:40.855Z,0.60
2023-01-03T23:42:45.551Z,0.50
2023-01-03T23:47:49.186Z,0.70
2023-01-03T23:52:52.582Z,0.88
2023-01-03T23:57:57.628Z,0.80
